Time;durP1;ratioP1;P1;durP2;ratioP2;P2;SDS_P1;SDS_P2;PMS_P1;PMS_P2;Temp;Humidity;BMP_temperature;BMP_pressure;BME280_temperature;BME280_humidity;BME280_pressure;Samples;Min_cycle;Max_cycle;Signal;HPM_P1;HPM_P2
2021/07/09 00:02:03;;;;;;;9.20;4.77;;;;;;;18.76;82.97;101417.78;1718213;81;20977;-71
2021/07/09 00:04:29;;;;;;;7.43;4.73;;;;;;;18.72;83.14;101416.20;1721283;81;22382;-70
2021/07/09 00:06:56;;;;;;;7.43;4.87;;;;;;;18.68;83.28;101420.53;1724485;81;21019;-71
2021/07/09 00:09:23;;;;;;;8.90;5.40;;;;;;;18.64;83.60;101416.00;1727426;81;21549;-71
2021/07/09 00:11:52;;;;;;;11.50;5.30;;;;;;;18.59;83.82;101417.41;1726779;81;21103;-71
2021/07/09 00:14:29;;;;;;;7.83;5.37;;;;;;;18.50;83.96;101409.95;1718624;81;21379;-71
2021/07/09 00:16:57;;;;;;;9.87;5.70;;;;;;;18.47;84.17;101409.72;1689622;84;21103;-69
2021/07/09 00:19:24;;;;;;;8.37;5.40;;;;;;;18.41;84.29;101414.94;1724299;81;20987;-70
2021/07/09 00:21:51;;;;;;;7.57;4.70;;;;;;;18.36;84.51;101411.75;1718705;83;21026;-70
2021/07/09 00:24:20;;;;;;;8.10;5.03;;;;;;;18.33;84.70;101410.97;1718416;81;21027;-70
2021/07/09 00:26:46;;;;;;;9.97;5.37;;;;;;;18.31;84.91;101415.05;1723659;83;21098;-70
2021/07/09 00:29:15;;;;;;;8.90;5.80;;;;;;;18.27;85.07;101409.42;1722183;81;21054;-71
2021/07/09 00:31:42;;;;;;;6.47;5.13;;;;;;;18.22;85.25;101408.11;1717649;81;21085;-71
2021/07/09 00:34:09;;;;;;;8.50;5.97;;;;;;;18.18;85.37;101411.14;1717689;81;21057;-71
2021/07/09 00:36:36;;;;;;;7.53;5.00;;;;;;;18.14;85.51;101410.11;1729269;81;21177;-71
2021/07/09 00:39:07;;;;;;;7.27;5.20;;;;;;;18.07;85.71;101409.09;1687890;83;21527;-71
2021/07/09 00:41:34;;;;;;;8.98;5.50;;;;;;;18.03;85.86;101406.16;1684646;83;21389;-69
2021/07/09 00:44:01;;;;;;;7.60;5.40;;;;;;;17.99;86.02;101412.41;1722175;81;20999;-71
2021/07/09 00:46:38;;;;;;;9.10;5.50;;;;;;;17.95;86.15;101413.52;1710709;81;21077;-70
2021/07/09 00:49:06;;;;;;;7.50;5.27;;;;;;;17.89;86.42;101410.61;1727235;81;21135;-71
2021/07/09 00:51:33;;;;;;;7.20;5.07;;;;;;;17.83;86.72;101407.69;1727596;81;21011;-71
2021/07/09 00:53:59;;;;;;;7.83;5.87;;;;;;;17.78;86.95;101414.51;1723180;81;20923;-71
2021/07/09 00:56:27;;;;;;;6.57;5.50;;;;;;;17.75;87.15;101410.98;1727471;81;21491;-70
2021/07/09 00:58:54;;;;;;;9.03;6.13;;;;;;;17.72;87.33;101406.95;1734150;81;21167;-70
2021/07/09 01:01:20;;;;;;;7.07;5.80;;;;;;;17.69;87.48;101407.52;1731767;81;22305;-71
2021/07/09 01:03:47;;;;;;;7.57;5.23;;;;;;;17.68;87.62;101407.81;1730102;81;21019;-71
2021/07/09 01:06:14;;;;;;;6.03;5.27;;;;;;;17.61;87.63;101399.23;1728028;81;22103;-73
2021/07/09 01:08:41;;;;;;;7.43;5.50;;;;;;;17.61;87.63;101399.23;1726889;81;20956;-72
2021/07/09 01:11:10;;;;;;;6.93;5.47;;;;;;;17.57;87.57;101402.50;1724227;81;21505;-73
2021/07/09 01:13:41;;;;;;;7.30;5.30;;;;;;;17.53;87.65;101404.13;1726617;81;20975;-71
2021/07/09 01:16:12;;;;;;;6.95;5.72;;;;;;;17.50;87.75;101404.70;1722492;81;21018;-71
2021/07/09 01:18:39;;;;;;;6.97;5.73;;;;;;;17.49;87.91;101402.30;1720233;81;21035;-70
2021/07/09 01:21:09;;;;;;;9.47;6.33;;;;;;;17.47;88.04;101403.94;1709427;82;21063;-71
2021/07/09 01:23:37;;;;;;;6.80;5.90;;;;;;;17.47;88.19;101395.84;1711791;82;20990;-70
2021/07/09 01:26:05;;;;;;;8.50;6.43;;;;;;;17.46;88.85;101394.75;1718421;81;21931;-70
2021/07/09 01:28:32;;;;;;;8.13;5.90;;;;;;;17.46;88.85;101394.75;1726213;81;20983;-71
2021/07/09 01:31:00;;;;;;;7.90;5.60;;;;;;;17.40;89.45;101393.98;1720612;81;21549;-70
2021/07/09 01:33:27;;;;;;;7.80;6.00;;;;;;;17.40;89.45;101393.98;1727775;81;21015;-71
2021/07/09 01:35:55;;;;;;;10.83;6.00;;;;;;;17.39;89.73;101403.17;1729452;81;21513;-71
2021/07/09 01:38:23;;;;;;;7.70;5.87;;;;;;;17.36;90.06;101396.98;1730540;83;21138;-72
2021/07/09 01:40:49;;;;;;;7.30;5.60;;;;;;;17.27;90.47;101393.27;1727267;81;20984;-72
2021/07/09 01:43:16;;;;;;;8.87;4.77;;;;;;;17.27;90.47;101393.27;1673518;84;21098;-71
2021/07/09 01:45:43;;;;;;;7.27;5.60;;;;;;;17.22;90.23;101390.63;1667141;84;21505;-70
2021/07/09 01:48:09;;;;;;;7.20;5.80;;;;;;;17.16;90.29;101384.45;1683297;83;21043;-72
2021/07/09 01:50:36;;;;;;;6.33;5.40;;;;;;;17.11;90.05;101389.34;1687624;83;21820;-72
2021/07/09 01:53:03;;;;;;;6.70;5.37;;;;;;;17.11;90.05;101389.34;1689031;83;21477;-71
2021/07/09 01:55:33;;;;;;;8.00;5.27;;;;;;;17.00;90.65;101390.48;1691977;83;21144;-72
2021/07/09 01:58:00;;;;;;;6.27;5.63;;;;;;;17.01;90.46;101394.81;1691015;83;21052;-71
2021/07/09 02:00:27;;;;;;;7.60;5.70;;;;;;;16.99;90.29;101394.28;1684592;83;21197;-71
2021/07/09 02:02:54;;;;;;;6.90;5.50;;;;;;;16.99;90.44;101392.13;1699583;83;21049;-72
2021/07/09 02:05:23;;;;;;;6.47;5.57;;;;;;;16.99;90.44;101392.13;1683539;83;21017;-71
2021/07/09 02:07:54;;;;;;;7.60;5.30;;;;;;;16.97;90.40;101396.98;1728298;81;22364;-71
2021/07/09 02:10:28;;;;;;;7.00;5.70;;;;;;;16.97;90.40;101396.98;1725040;81;21078;-73
2021/07/09 02:12:56;;;;;;;8.27;5.23;;;;;;;16.94;90.13;101400.23;1726975;81;21299;-72
2021/07/09 02:15:33;;;;;;;7.53;5.33;;;;;;;16.93;90.37;101399.98;1673246;84;22072;-73
2021/07/09 02:18:03;;;;;;;6.93;5.07;;;;;;;16.88;90.31;101402.18;1726063;81;21663;-71
2021/07/09 02:20:30;;;;;;;8.10;5.30;;;;;;;16.85;90.24;101404.09;1727220;81;22210;-71
2021/07/09 02:22:58;;;;;;;6.33;5.30;;;;;;;16.83;90.20;101403.55;1725702;81;21694;-72
2021/07/09 02:25:25;;;;;;;8.27;5.57;;;;;;;16.83;90.20;101403.55;1730667;81;21019;-72
2021/07/09 02:27:54;;;;;;;6.50;5.33;;;;;;;16.84;90.13;101407.30;1726869;81;22005;-71
2021/07/09 02:30:23;;;;;;;8.00;5.37;;;;;;;16.86;90.12;101405.69;1729413;81;21773;-72
2021/07/09 02:32:51;;;;;;;7.83;5.87;;;;;;;16.88;90.12;101411.62;1727109;81;21550;-71
2021/07/09 02:35:21;;;;;;;8.43;5.50;;;;;;;16.90;90.14;101405.94;1712642;81;21772;-71
2021/07/09 02:37:49;;;;;;;7.10;6.07;;;;;;;16.92;90.16;101413.22;1728091;81;21687;-71
2021/07/09 02:40:19;;;;;;;6.93;5.33;;;;;;;16.93;90.18;101414.83;1689744;83;21660;-72
2021/07/09 02:42:48;;;;;;;9.13;5.53;;;;;;;16.91;90.29;101406.99;1725000;81;21066;-71
2021/07/09 02:45:17;;;;;;;8.60;5.83;;;;;;;16.97;90.35;101413.17;1704396;83;20959;-72
2021/07/09 02:47:46;;;;;;;7.00;5.30;;;;;;;17.05;90.51;101422.85;1720307;81;20990;-72
2021/07/09 02:50:18;;;;;;;7.73;5.57;;;;;;;17.10;90.55;101419.30;1729587;81;21083;-73
2021/07/09 02:52:44;;;;;;;6.80;5.37;;;;;;;17.10;90.55;101419.30;1708331;81;21188;-71
2021/07/09 02:55:12;;;;;;;6.30;5.33;;;;;;;17.15;90.62;101409.03;1726903;81;20976;-72
2021/07/09 02:57:41;;;;;;;7.00;5.30;;;;;;;17.17;90.59;101416.30;1726419;81;21055;-71
2021/07/09 03:00:11;;;;;;;10.03;5.07;;;;;;;17.22;90.77;101408.98;1705944;81;21485;-72
2021/07/09 03:02:38;;;;;;;7.43;5.23;;;;;;;17.28;90.37;101404.36;1722773;81;21019;-71
2021/07/09 03:05:07;;;;;;;6.83;5.80;;;;;;;17.33;90.10;101408.35;1716658;83;21114;-71
2021/07/09 03:07:34;;;;;;;6.73;4.87;;;;;;;17.38;89.92;101407.52;1729916;81;21526;-72
2021/07/09 03:10:05;;;;;;;6.70;5.03;;;;;;;17.43;89.67;101408.27;1730425;83;21002;-71
2021/07/09 03:12:32;;;;;;;6.43;4.63;;;;;;;17.49;89.18;101405.00;1725119;81;21034;-72
2021/07/09 03:14:58;;;;;;;5.33;4.17;;;;;;;17.52;88.57;101405.78;1719343;81;21509;-72
2021/07/09 03:17:25;;;;;;;7.53;4.93;;;;;;;17.53;87.61;101405.48;1727324;81;21062;-71
2021/07/09 03:19:51;;;;;;;6.73;4.83;;;;;;;17.57;87.11;101405.20;1713369;81;21158;-71
2021/07/09 03:22:20;;;;;;;6.30;4.73;;;;;;;17.64;86.43;101406.78;1722346;81;20983;-72
2021/07/09 03:24:47;;;;;;;7.97;4.37;;;;;;;17.71;86.02;101404.00;1726427;81;21070;-72
2021/07/09 03:27:13;;;;;;;5.47;4.37;;;;;;;17.77;85.30;101406.15;1715592;81;21021;-73
2021/07/09 03:29:42;;;;;;;6.23;4.50;;;;;;;17.87;84.62;101411.45;1725037;81;21324;-72
2021/07/09 03:32:10;;;;;;;6.93;4.27;;;;;;;17.97;84.08;101407.85;1727187;82;22457;-72
2021/07/09 03:34:37;;;;;;;6.10;4.30;;;;;;;18.07;83.50;101407.74;1719115;81;21574;-71
2021/07/09 03:37:04;;;;;;;6.67;4.37;;;;;;;18.19;83.12;101410.03;1689060;83;21069;-71
2021/07/09 03:39:33;;;;;;;6.70;4.43;;;;;;;18.30;82.92;101408.84;1667763;84;21496;-72
2021/07/09 03:41:59;;;;;;;8.43;4.57;;;;;;;18.42;82.49;101413.28;1726715;82;21063;-72
2021/07/09 03:44:27;;;;;;;5.27;4.00;;;;;;;18.55;82.51;101411.78;1729428;81;20999;-72
2021/07/09 03:46:54;;;;;;;5.90;4.23;;;;;;;18.68;82.22;101407.01;1714594;81;21426;-72
2021/07/09 03:49:21;;;;;;;6.87;4.17;;;;;;;18.80;81.62;101402.56;1718318;81;21039;-72
2021/07/09 03:51:48;;;;;;;5.53;4.30;;;;;;;18.92;80.99;101411.06;1719382;81;21565;-72
2021/07/09 03:54:15;;;;;;;6.57;3.97;;;;;;;19.05;79.70;101407.35;1688736;83;21147;-71
2021/07/09 03:56:43;;;;;;;5.77;4.00;;;;;;;19.16;78.68;101407.48;1722847;81;21539;-71
2021/07/09 03:59:10;;;;;;;7.60;4.30;;;;;;;19.29;78.31;101412.15;1727782;81;21035;-71
2021/07/09 04:01:37;;;;;;;5.87;4.00;;;;;;;19.40;77.16;101412.78;1720414;81;21467;-72
2021/07/09 04:04:04;;;;;;;7.60;3.73;;;;;;;19.54;76.35;101420.95;1723745;81;21006;-71
2021/07/09 04:06:30;;;;;;;8.10;3.90;;;;;;;19.63;75.00;101421.89;1721434;81;21793;-72
2021/07/09 04:08:58;;;;;;;7.13;4.07;;;;;;;19.74;74.06;101422.55;1719918;81;20999;-72
2021/07/09 04:11:24;;;;;;;6.07;3.90;;;;;;;19.85;73.86;101418.02;1721884;81;21501;-72
2021/07/09 04:13:51;;;;;;;5.13;3.47;;;;;;;19.98;73.32;101419.70;1715204;81;21147;-72
2021/07/09 04:16:18;;;;;;;7.20;4.00;;;;;;;20.08;72.28;101419.52;1723911;81;21105;-73
2021/07/09 04:18:44;;;;;;;5.40;3.40;;;;;;;20.18;71.42;101419.87;1726635;81;21580;-72
2021/07/09 04:21:11;;;;;;;6.77;3.77;;;;;;;20.30;70.82;101414.20;1710075;81;20998;-73
2021/07/09 04:23:38;;;;;;;5.20;3.60;;;;;;;20.44;70.49;101412.84;1673558;84;21090;-73
2021/07/09 04:26:04;;;;;;;8.50;3.37;;;;;;;20.58;70.57;101421.00;1687464;83;21000;-73
2021/07/09 04:28:31;;;;;;;5.93;3.50;;;;;;;20.69;70.20;101417.51;1684705;83;21693;-72
2021/07/09 04:30:58;;;;;;;5.10;3.17;;;;;;;20.79;69.53;101419.44;1721497;81;21227;-72
2021/07/09 04:33:24;;;;;;;5.37;3.20;;;;;;;20.91;68.02;101418.93;1719099;81;22174;-72
2021/07/09 04:35:51;;;;;;;5.50;3.37;;;;;;;21.04;67.20;101409.14;1731052;81;21137;-73
2021/07/09 04:38:19;;;;;;;6.93;3.50;;;;;;;21.18;66.96;101410.44;1706614;81;20999;-72
2021/07/09 04:40:46;;;;;;;4.40;3.00;;;;;;;21.33;66.63;101407.38;1725267;81;20976;-72
2021/07/09 04:43:14;;;;;;;4.63;2.70;;;;;;;21.47;65.49;101411.41;1677405;83;22230;-73
2021/07/09 04:45:42;;;;;;;4.47;2.70;;;;;;;21.61;65.01;101406.70;1687688;83;21076;-73
2021/07/09 04:48:09;;;;;;;3.80;2.73;;;;;;;21.74;64.96;101411.81;1725384;81;21534;-74
2021/07/09 04:50:37;;;;;;;5.63;2.80;;;;;;;21.87;64.03;101412.84;1723123;83;20998;-72
2021/07/09 04:53:04;;;;;;;4.67;2.80;;;;;;;21.96;63.11;101413.13;1725861;81;22158;-74
2021/07/09 04:55:31;;;;;;;4.60;2.40;;;;;;;22.08;61.83;101409.84;1724280;81;21125;-73
2021/07/09 04:57:58;;;;;;;6.17;2.83;;;;;;;22.20;61.96;101407.33;1720728;81;21003;-73
2021/07/09 05:00:24;;;;;;;4.97;2.40;;;;;;;22.31;60.97;101412.48;1715096;81;21011;-73
2021/07/09 05:02:51;;;;;;;4.13;2.50;;;;;;;22.40;59.69;101406.52;1723163;81;21058;-72
2021/07/09 05:05:18;;;;;;;4.17;2.57;;;;;;;22.54;60.06;101407.75;1723472;81;21111;-73
2021/07/09 05:07:45;;;;;;;8.53;3.20;;;;;;;22.65;60.15;101410.42;1736259;81;21092;-73
2021/07/09 05:10:12;;;;;;;5.13;2.80;;;;;;;22.78;59.67;101406.77;1722841;81;21637;-73
2021/07/09 05:12:41;;;;;;;3.93;2.87;;;;;;;22.91;58.83;101412.63;1721672;81;21074;-72
2021/07/09 05:15:09;;;;;;;5.00;2.50;;;;;;;23.02;57.40;101409.05;1708543;81;21042;-73
2021/07/09 05:17:36;;;;;;;3.77;2.70;;;;;;;23.14;56.32;101403.77;1726045;81;21106;-72
2021/07/09 05:20:05;;;;;;;3.83;2.00;;;;;;;23.27;56.55;101408.80;1720434;81;21152;-73
2021/07/09 05:22:31;;;;;;;4.03;2.20;;;;;;;23.40;56.63;101407.83;1715698;81;21736;-72
2021/07/09 05:24:59;;;;;;;3.73;2.33;;;;;;;23.51;56.49;101413.73;1719740;81;21020;-73
2021/07/09 05:27:31;;;;;;;5.77;2.87;;;;;;;23.61;54.82;101409.87;1726783;81;20972;-73
2021/07/09 05:29:54;;;;;;;5.30;2.70;;;;;;;23.72;54.13;101411.14;1716896;81;21578;-74
2021/07/09 05:32:24;;;;;;;4.07;2.30;;;;;;;23.82;54.28;101407.27;1722951;81;21159;-73
2021/07/09 05:34:51;;;;;;;4.83;2.57;;;;;;;23.92;53.31;101409.64;1723743;81;21058;-72
2021/07/09 05:37:18;;;;;;;3.93;2.10;;;;;;;24.02;53.15;101407.94;1732373;81;21605;-73
2021/07/09 05:39:47;;;;;;;6.00;2.43;;;;;;;24.14;51.95;101405.06;1704096;81;21065;-72
2021/07/09 05:42:14;;;;;;;3.50;1.80;;;;;;;24.23;51.68;101407.20;1723267;81;20993;-73
2021/07/09 05:44:41;;;;;;;5.27;1.90;;;;;;;24.36;51.31;101408.10;1719563;81;22032;-73
2021/07/09 05:47:08;;;;;;;5.43;2.50;;;;;;;24.46;50.47;101407.17;1705647;82;21082;-72
2021/07/09 05:49:34;;;;;;;4.63;2.17;;;;;;;24.59;50.36;101405.91;1695116;83;21633;-73
2021/07/09 05:52:01;;;;;;;5.10;2.40;;;;;;;24.69;49.62;101400.84;1690776;83;21147;-73
2021/07/09 05:54:29;;;;;;;4.20;2.13;;;;;;;24.80;48.50;101397.14;1705205;81;21042;-72
2021/07/09 05:56:56;;;;;;;4.00;2.47;;;;;;;24.89;48.03;101392.42;1726492;81;21610;-72
2021/07/09 05:59:23;;;;;;;4.23;2.00;;;;;;;25.00;47.96;101393.59;1691070;83;21052;-72
2021/07/09 06:01:50;;;;;;;3.57;1.93;;;;;;;25.14;48.49;101398.02;1672952;83;21083;-73
2021/07/09 06:04:17;;;;;;;5.53;2.20;;;;;;;25.25;47.99;101390.45;1722679;83;21114;-73
2021/07/09 06:06:44;;;;;;;4.83;2.30;;;;;;;25.34;46.84;101387.64;1726755;81;21074;-73
2021/07/09 06:09:11;;;;;;;5.07;2.20;;;;;;;25.44;46.42;101385.84;1728242;81;21527;-74
2021/07/09 06:11:37;;;;;;;6.10;2.30;;;;;;;25.56;46.31;101387.80;1723614;81;21525;-72
2021/07/09 06:14:06;;;;;;;4.30;2.10;;;;;;;25.68;46.85;101387.03;1727580;81;21059;-72
2021/07/09 06:16:33;;;;;;;4.53;2.10;;;;;;;25.83;46.20;101386.41;1724572;82;21034;-73
2021/07/09 06:19:00;;;;;;;7.40;2.00;;;;;;;25.94;45.07;101378.55;1731254;81;20988;-72
2021/07/09 06:21:27;;;;;;;4.63;1.90;;;;;;;26.04;45.53;101380.03;1728703;82;21071;-73
2021/07/09 06:23:54;;;;;;;3.97;1.90;;;;;;;26.16;46.02;101384.94;1726335;81;21141;-73
2021/07/09 06:26:21;;;;;;;2.63;1.63;;;;;;;26.28;45.38;101385.48;1725239;81;21019;-73
2021/07/09 06:28:49;;;;;;;2.50;1.60;;;;;;;26.36;43.72;101384.58;1727337;81;21011;-73
2021/07/09 06:31:16;;;;;;;3.30;1.90;;;;;;;26.46;44.57;101379.78;1715486;81;21037;-73
2021/07/09 06:33:43;;;;;;;4.03;1.60;;;;;;;26.56;44.47;101380.13;1683766;83;21133;-74
2021/07/09 06:36:11;;;;;;;5.47;2.13;;;;;;;26.65;44.42;101379.98;1729135;81;21083;-73
2021/07/09 06:38:39;;;;;;;2.97;1.63;;;;;;;26.72;42.17;101382.95;1721905;81;21041;-73
2021/07/09 06:41:07;;;;;;;3.80;1.83;;;;;;;26.77;41.84;101373.67;1722187;81;21027;-73
2021/07/09 06:43:34;;;;;;;2.70;1.63;;;;;;;26.85;41.03;101379.03;1730589;81;22450;-72
2021/07/09 06:46:00;;;;;;;3.43;1.60;;;;;;;26.92;40.40;101381.17;1722271;81;21055;-73
2021/07/09 06:48:27;;;;;;;2.70;1.40;;;;;;;26.95;39.90;101383.22;1727362;81;21105;-74
2021/07/09 06:50:54;;;;;;;3.13;1.57;;;;;;;27.00;39.90;101381.59;1720071;81;21066;-74
2021/07/09 06:53:21;;;;;;;3.53;1.70;;;;;;;27.08;39.57;101385.31;1729135;81;21047;-74
2021/07/09 06:55:48;;;;;;;3.70;1.70;;;;;;;27.16;39.11;101387.16;1725310;81;21042;-74
2021/07/09 06:58:14;;;;;;;4.27;1.80;;;;;;;27.27;40.11;101380.59;1685604;83;21748;-74
2021/07/09 07:00:41;;;;;;;3.23;1.80;;;;;;;27.36;39.75;101385.34;1664829;84;21035;-72
2021/07/09 07:03:08;;;;;;;3.67;1.33;;;;;;;27.43;38.18;101377.88;1665548;84;21152;-74
2021/07/09 07:05:35;;;;;;;4.50;1.60;;;;;;;27.45;38.01;101376.96;1665209;84;21635;-74
2021/07/09 07:08:15;;;;;;;3.20;1.63;;;;;;;27.50;37.37;101376.69;1664822;84;21026;-75
2021/07/09 07:10:41;;;;;;;8.40;1.67;;;;;;;27.57;37.53;101381.80;1643931;84;21129;-75
2021/07/09 07:13:09;;;;;;;2.77;1.60;;;;;;;27.61;37.24;101380.52;1661671;84;21147;-75
2021/07/09 07:15:35;;;;;;;4.97;1.67;;;;;;;27.65;37.28;101379.23;1667935;84;21548;-74
2021/07/09 07:18:08;;;;;;;3.47;1.70;;;;;;;27.69;37.01;101376.00;1684734;83;21137;-74
2021/07/09 07:20:31;;;;;;;3.73;1.70;;;;;;;27.77;36.74;101379.98;1666653;84;21694;-73
2021/07/09 07:22:58;;;;;;;3.13;1.80;;;;;;;27.87;37.18;101375.09;1671241;83;21164;-74
2021/07/09 07:25:25;;;;;;;3.83;1.90;;;;;;;27.94;38.72;101371.17;1667154;83;21543;-73
2021/07/09 07:27:52;;;;;;;4.30;2.23;;;;;;;28.02;38.38;101368.80;1664981;84;21055;-74
2021/07/09 07:30:20;;;;;;;5.47;2.10;;;;;;;28.13;38.96;101359.42;1722647;81;21042;-73
2021/07/09 07:32:48;;;;;;;3.60;2.00;;;;;;;28.26;38.15;101359.53;1724591;81;21042;-73
2021/07/09 07:35:15;;;;;;;6.70;2.93;;;;;;;28.34;37.25;101355.81;1721589;81;21653;-73
2021/07/09 07:37:42;;;;;;;10.70;2.97;;;;;;;28.45;37.36;101363.73;1720586;81;21026;-74
2021/07/09 07:40:12;;;;;;;4.23;2.07;;;;;;;28.52;37.01;101356.22;1702524;82;32890;-73
2021/07/09 07:42:39;;;;;;;10.30;4.73;;;;;;;28.53;35.77;101349.58;1721442;81;21029;-79
2021/07/09 07:45:08;;;;;;;6.10;2.50;;;;;;;28.59;36.67;101341.83;1722801;82;20983;-73
2021/07/09 07:47:35;;;;;;;5.97;2.73;;;;;;;28.64;35.58;101341.55;1722333;81;21171;-73
2021/07/09 07:50:01;;;;;;;7.23;3.20;;;;;;;28.59;34.91;101343.99;1727805;81;21018;-75
2021/07/09 07:52:30;;;;;;;6.87;2.63;;;;;;;28.57;35.04;101346.91;1719607;81;21078;-77
2021/07/09 07:54:57;;;;;;;14.73;6.30;;;;;;;28.57;34.31;101339.45;1718939;82;21015;-78
2021/07/09 07:57:26;;;;;;;9.67;2.57;;;;;;;28.60;34.01;101335.98;1715945;81;20997;-74
2021/07/09 07:59:53;;;;;;;6.00;2.60;;;;;;;28.58;33.04;101340.24;1730829;81;21830;-74
2021/07/09 08:02:19;;;;;;;5.13;1.90;;;;;;;28.59;33.75;101334.95;1726117;81;21019;-73
2021/07/09 08:04:47;;;;;;;5.77;1.97;;;;;;;28.60;34.56;101333.82;1728111;81;20978;-74
2021/07/09 08:07:15;;;;;;;5.03;2.00;;;;;;;28.62;34.60;101333.65;1672344;84;21482;-74
2021/07/09 08:09:43;;;;;;;4.53;1.93;;;;;;;28.72;34.61;101335.03;1724252;81;21169;-73
2021/07/09 08:12:10;;;;;;;4.27;1.87;;;;;;;28.83;34.78;101331.14;1674876;83;21118;-74
2021/07/09 08:14:38;;;;;;;4.30;2.20;;;;;;;28.99;34.18;101327.73;1695079;82;21172;-74
2021/07/09 08:17:05;;;;;;;3.67;1.90;;;;;;;29.08;32.93;101329.67;1695221;82;21070;-74
2021/07/09 08:19:32;;;;;;;2.23;1.60;;;;;;;29.10;33.24;101329.33;1690451;82;21130;-73
2021/07/09 08:21:59;;;;;;;4.30;1.90;;;;;;;29.15;34.51;101332.55;1698072;82;21114;-75
2021/07/09 08:24:26;;;;;;;5.07;2.30;;;;;;;29.20;34.23;101330.89;1696696;82;21131;-74
2021/07/09 08:26:52;;;;;;;4.17;2.03;;;;;;;29.25;33.92;101331.16;1691753;82;21066;-75
2021/07/09 08:29:19;;;;;;;8.53;2.30;;;;;;;29.25;34.05;101328.98;1694815;82;21683;-74
2021/07/09 08:31:46;;;;;;;5.23;1.77;;;;;;;29.24;34.60;101328.78;1698191;82;21097;-73
2021/07/09 08:34:17;;;;;;;5.27;2.10;;;;;;;29.25;33.22;101316.61;1695943;82;21182;-75
2021/07/09 08:36:45;;;;;;;8.70;2.10;;;;;;;29.27;34.47;101312.92;1696796;82;21597;-75
2021/07/09 08:39:15;;;;;;;7.97;2.30;;;;;;;29.23;33.45;101314.23;1696407;82;21608;-75
2021/07/09 08:41:44;;;;;;;3.80;1.80;;;;;;;29.21;34.83;101320.09;1702013;82;21523;-74
2021/07/09 08:44:12;;;;;;;5.00;2.00;;;;;;;29.15;32.46;101316.05;1719166;81;21054;-73
2021/07/09 08:46:39;;;;;;;3.17;1.90;;;;;;;29.12;32.39;101309.11;1723167;81;21085;-75
2021/07/09 08:49:08;;;;;;;6.93;1.97;;;;;;;29.12;32.37;101297.55;1721463;81;21154;-77
2021/07/09 08:51:35;;;;;;;4.47;2.23;;;;;;;29.15;34.32;101292.66;1722610;81;21014;-75
2021/07/09 08:54:01;;;;;;;3.40;1.80;;;;;;;29.14;35.71;101296.59;1719973;81;20995;-75
2021/07/09 08:56:28;;;;;;;3.43;1.77;;;;;;;29.13;35.10;101290.87;1720937;81;20962;-75
2021/07/09 08:58:54;;;;;;;3.50;1.77;;;;;;;29.15;35.23;101291.88;1725298;81;21538;-75
2021/07/09 09:01:22;;;;;;;5.37;2.07;;;;;;;29.16;33.12;101286.02;1728339;81;21194;-74
2021/07/09 09:04:04;;;;;;;3.77;1.90;;;;;;;29.16;33.99;101287.98;1688035;83;21118;-74
2021/07/09 09:06:30;;;;;;;3.05;1.90;;;;;;;29.14;33.37;101287.54;1712794;83;21051;-75
2021/07/09 09:08:57;;;;;;;4.50;1.70;;;;;;;29.13;33.60;101279.08;1682051;83;21652;-74
2021/07/09 09:11:24;;;;;;;3.37;2.10;;;;;;;29.21;33.93;101276.07;1685799;83;21143;-73
2021/07/09 09:13:51;;;;;;;3.13;2.10;;;;;;;29.27;33.45;101276.56;1729432;81;21199;-74
2021/07/09 09:16:18;;;;;;;3.30;1.70;;;;;;;29.34;34.17;101278.06;1713911;81;21069;-73
2021/07/09 09:18:52;;;;;;;3.30;2.07;;;;;;;29.40;33.53;101271.67;1714595;81;21654;-73
2021/07/09 09:21:23;;;;;;;4.93;1.93;;;;;;;29.46;34.96;101275.71;1718706;81;21102;-75
2021/07/09 09:23:54;;;;;;;4.63;2.00;;;;;;;29.61;33.54;101274.78;1722102;81;21115;-74
2021/07/09 09:26:50;;;;;;;3.87;1.67;;;;;;;29.75;33.32;101265.18;1720622;81;21266;-75
2021/07/09 09:29:36;;;;;;;4.20;1.97;;;;;;;29.78;33.09;101272.67;1681961;84;21554;-73
2021/07/09 09:32:06;;;;;;;4.03;1.80;;;;;;;29.91;32.13;101265.78;1725826;81;21543;-74
2021/07/09 09:34:48;;;;;;;4.97;2.10;;;;;;;29.95;31.74;101263.89;1722153;81;21511;-73
2021/07/09 09:37:20;;;;;;;3.37;2.03;;;;;;;29.99;33.00;101267.48;1724313;81;21042;-73
2021/07/09 09:39:48;;;;;;;6.47;2.10;;;;;;;29.96;32.58;101268.23;1725989;81;21478;-73
2021/07/09 09:42:24;;;;;;;4.10;2.33;;;;;;;29.88;32.14;101267.93;1725563;81;21528;-78
2021/07/09 09:45:02;;;;;;;4.63;2.30;;;;;;;29.88;31.15;101264.59;1727225;81;21125;-74
2021/07/09 09:47:34;;;;;;;4.83;1.90;;;;;;;29.83;32.01;101262.73;1728888;81;21121;-77
2021/07/09 09:50:04;;;;;;;3.07;2.10;;;;;;;29.71;31.00;101262.94;1724061;81;21588;-76
2021/07/09 09:52:42;;;;;;;3.67;2.40;;;;;;;29.59;31.12;101255.66;1726089;81;21599;-74
2021/07/09 09:55:22;;;;;;;2.87;1.97;;;;;;;29.58;31.48;101259.56;1724551;81;21200;-76
2021/07/09 09:58:07;;;;;;;4.23;2.70;;;;;;;29.62;31.38;101257.70;1723007;81;21484;-73
2021/07/09 10:00:35;;;;;;;6.03;2.33;;;;;;;29.70;31.54;101257.22;1722495;81;21082;-78
2021/07/09 10:03:04;;;;;;;3.57;2.00;;;;;;;29.76;32.12;101251.03;1726304;81;21094;-74
2021/07/09 10:05:41;;;;;;;3.07;1.80;;;;;;;29.87;33.61;101255.30;1687261;81;21109;-74
2021/07/09 10:08:24;;;;;;;3.40;1.83;;;;;;;30.06;33.63;101256.55;1717659;83;21497;-74
2021/07/09 10:10:51;;;;;;;3.20;1.90;;;;;;;30.15;31.00;101254.32;1680780;83;21142;-74
2021/07/09 10:13:22;;;;;;;4.17;2.30;;;;;;;30.12;31.14;101252.91;1730061;81;21046;-78
2021/07/09 10:15:54;;;;;;;3.00;2.00;;;;;;;30.15;32.56;101250.19;1720150;81;21129;-75
2021/07/09 10:18:20;;;;;;;4.30;1.90;;;;;;;30.30;32.88;101250.39;1720122;81;21115;-76
2021/07/09 10:20:47;;;;;;;3.27;1.60;;;;;;;30.47;32.77;101247.08;1712864;81;21010;-76
2021/07/09 10:23:17;;;;;;;4.37;1.90;;;;;;;30.60;32.09;101242.07;1726174;81;21118;-76
2021/07/09 10:25:48;;;;;;;12.53;2.43;;;;;;;30.66;31.51;101235.05;1717801;81;21085;-75
2021/07/09 10:28:17;;;;;;;5.40;1.85;;;;;;;30.67;31.24;101238.03;1723555;82;21027;-75
2021/07/09 10:30:45;;;;;;;4.40;2.10;;;;;;;30.68;32.97;101229.17;1725151;81;21169;-73
2021/07/09 10:33:35;;;;;;;3.22;1.82;;;;;;;30.75;32.90;101225.10;1726117;82;21022;-72
2021/07/09 10:36:29;;;;;;;3.10;1.85;;;;;;;30.71;33.17;101224.28;1651625;82;21663;-72
2021/07/09 10:38:56;;;;;;;3.58;1.90;;;;;;;30.76;32.00;101220.60;1727097;81;21026;-74
2021/07/09 10:41:24;;;;;;;3.35;1.95;;;;;;;30.77;31.66;101218.66;1719408;81;21145;-72
2021/07/09 10:44:14;;;;;;;3.12;1.77;;;;;;;30.64;31.18;101216.73;1727490;81;21151;-73
2021/07/09 10:46:41;;;;;;;3.40;1.98;;;;;;;30.48;31.54;101209.27;1724422;81;21058;-74
2021/07/09 10:49:07;;;;;;;3.20;1.80;;;;;;;30.42;32.06;101210.19;1724506;81;21518;-73
2021/07/09 10:51:51;;;;;;;3.77;1.70;;;;;;;30.45;31.52;101206.67;1726385;81;21636;-70
2021/07/09 10:54:29;;;;;;;3.43;1.83;;;;;;;30.36;31.68;101203.42;1724363;81;21101;-72
2021/07/09 10:57:20;;;;;;;3.63;2.17;;;;;;;30.34;32.42;101201.05;1711245;81;21350;-71
2021/07/09 11:00:24;;;;;;;3.03;2.07;;;;;;;30.47;33.01;101200.21;1725571;81;21045;-72
2021/07/09 11:03:04;;;;;;;5.10;1.95;;;;;;;30.66;33.41;101196.45;1720778;81;21019;-74
2021/07/09 11:06:00;;;;;;;4.70;2.20;;;;;;;30.82;32.10;101193.48;1732292;81;21079;-71
2021/07/09 11:08:43;;;;;;;4.00;2.12;;;;;;;30.84;32.24;101187.01;1723375;83;21011;-73
2021/07/09 11:11:13;;;;;;;4.53;2.27;;;;;;;30.82;31.21;101180.48;1723668;81;21133;-73
2021/07/09 11:13:49;;;;;;;3.70;1.72;;;;;;;30.77;31.42;101184.98;1727835;81;21023;-73
2021/07/09 11:16:39;;;;;;;2.60;1.82;;;;;;;30.76;30.51;101177.86;1721722;80;21578;-72
2021/07/09 11:19:15;;;;;;;4.22;2.10;;;;;;;30.64;32.26;101183.64;1713206;83;21020;-74
2021/07/09 11:21:49;;;;;;;5.25;1.75;;;;;;;30.74;32.22;101175.27;1727481;81;21050;-73
2021/07/09 11:24:20;;;;;;;4.33;2.10;;;;;;;30.83;32.12;101178.51;1725391;81;21116;-74
2021/07/09 11:26:53;;;;;;;3.22;2.17;;;;;;;30.92;32.00;101171.30;1715918;81;21047;-73
2021/07/09 11:29:33;;;;;;;4.08;1.80;;;;;;;30.94;31.08;101167.00;1723714;81;21023;-74
2021/07/09 11:32:04;;;;;;;3.70;1.90;;;;;;;30.85;31.33;101169.28;1720668;81;21074;-73
2021/07/09 11:34:36;;;;;;;3.60;2.20;;;;;;;30.75;31.17;101165.81;1726138;81;21619;-74